createdAt,value
2023-09-27T00:00:57.936Z,995.7
2023-09-27T00:01:59.658Z,995.71
2023-09-27T00:03:01.436Z,995.73
2023-09-27T00:04:03.021Z,995.75
2023-09-27T00:05:04.853Z,995.77
2023-09-27T00:06:06.854Z,995.78
2023-09-27T00:07:08.283Z,995.8
2023-09-27T00:08:10.057Z,995.82
2023-09-27T00:09:11.707Z,995.78
2023-09-27T00:10:13.434Z,995.81
2023-09-27T00:11:15.231Z,995.83
2023-09-27T00:12:17.048Z,995.83
2023-09-27T00:13:18.633Z,995.79
2023-09-27T00:14:20.402Z,995.84
2023-09-27T00:15:22.141Z,995.85
2023-09-27T00:16:25.240Z,995.86
2023-09-27T00:17:27.010Z,995.89
2023-09-27T00:18:27.328Z,995.9
2023-09-27T00:19:29.038Z,995.88
2023-09-27T00:20:30.806Z,995.89
2023-09-27T00:21:32.544Z,995.87
2023-09-27T00:22:34.244Z,995.83
2023-09-27T00:23:35.978Z,995.8
2023-09-27T00:24:37.732Z,995.76
2023-09-27T00:25:39.452Z,995.72
2023-09-27T00:26:41.502Z,995.73
2023-09-27T00:27:42.961Z,995.72
2023-09-27T00:28:44.641Z,995.72
2023-09-27T00:29:46.377Z,995.73
2023-09-27T00:30:48.176Z,995.72
2023-09-27T00:31:49.926Z,995.78
2023-09-27T00:32:51.807Z,995.74
2023-09-27T00:33:53.477Z,995.78
2023-09-27T00:34:55.054Z,995.76
2023-09-27T00:35:56.792Z,995.73
2023-09-27T00:36:58.520Z,995.79
2023-09-27T00:38:00.321Z,995.8
2023-09-27T00:39:02.003Z,995.79
2023-09-27T00:40:04.795Z,995.8
2023-09-27T00:41:05.479Z,995.79
2023-09-27T00:42:07.183Z,995.77
2023-09-27T00:43:08.927Z,995.76
2023-09-27T00:44:10.808Z,995.77
2023-09-27T00:45:12.400Z,995.76
2023-09-27T00:46:14.173Z,995.73
2023-09-27T00:47:15.862Z,995.75
2023-09-27T00:48:17.691Z,995.76
2023-09-27T00:49:19.310Z,995.72
2023-09-27T00:50:21.138Z,995.68
2023-09-27T00:51:22.874Z,995.65
2023-09-27T00:52:24.512Z,995.69
2023-09-27T00:53:26.256Z,995.62
2023-09-27T00:54:27.978Z,995.63
2023-09-27T00:55:29.744Z,995.63
2023-09-27T00:56:31.456Z,995.6
2023-09-27T00:57:33.179Z,995.59
2023-09-27T00:58:34.946Z,995.62
2023-09-27T00:59:36.674Z,995.61
2023-09-27T01:00:38.376Z,995.62
2023-09-27T01:01:40.153Z,995.62
2023-09-27T01:02:41.952Z,995.62
2023-09-27T01:03:45.649Z,995.61
2023-09-27T01:04:50.493Z,995.59
2023-09-27T01:05:52.218Z,995.57
2023-09-27T01:06:53.931Z,995.55
2023-09-27T01:07:55.685Z,995.57
2023-09-27T01:08:57.389Z,995.57
2023-09-27T01:09:59.133Z,995.57
2023-09-27T01:11:00.897Z,995.55
2023-09-27T01:12:02.631Z,995.58
2023-09-27T01:13:04.334Z,995.56
2023-09-27T01:16:20.336Z,995.52
2023-09-27T01:18:24.422Z,995.5
2023-09-27T01:24:09.127Z,995.32
2023-09-27T01:25:10.735Z,995.29
2023-09-27T01:26:12.470Z,995.27
2023-09-27T01:27:14.332Z,995.28
2023-09-27T01:28:15.924Z,995.26
2023-09-27T01:29:17.660Z,995.28
2023-09-27T01:30:19.381Z,995.3
2023-09-27T01:31:21.184Z,995.32
2023-09-27T01:32:22.920Z,995.32
2023-09-27T01:33:26.162Z,995.36
2023-09-27T01:34:26.420Z,995.35
2023-09-27T01:35:28.138Z,995.4
2023-09-27T01:36:29.781Z,995.41
2023-09-27T01:37:31.512Z,995.4
2023-09-27T01:38:33.300Z,995.4
2023-09-27T01:39:35.019Z,995.39
2023-09-27T01:40:36.715Z,995.39
2023-09-27T01:41:38.434Z,995.38
2023-09-27T01:42:40.167Z,995.34
2023-09-27T01:43:41.925Z,995.37
2023-09-27T01:44:43.654Z,995.32
2023-09-27T01:45:45.505Z,995.3
2023-09-27T01:46:47.127Z,995.29
2023-09-27T01:47:48.902Z,995.32
2023-09-27T01:48:50.581Z,995.33
2023-09-27T01:49:52.339Z,995.36
2023-09-27T01:50:54.033Z,995.38
2023-09-27T01:51:55.769Z,995.39
2023-09-27T01:52:57.572Z,995.39
2023-09-27T01:53:59.256Z,995.39
2023-09-27T01:55:01.011Z,995.33
2023-09-27T01:56:02.778Z,995.4
2023-09-27T01:57:04.637Z,995.41
2023-09-27T01:58:06.155Z,995.42
2023-09-27T01:59:07.966Z,995.41
2023-09-27T02:00:09.629Z,995.46
2023-09-27T02:01:11.413Z,995.47
2023-09-27T02:02:13.237Z,995.45
2023-09-27T02:03:15.106Z,995.44
2023-09-27T02:04:16.620Z,995.43
2023-09-27T02:05:18.695Z,995.46
2023-09-27T02:06:20.082Z,995.45
2023-09-27T02:07:21.932Z,995.39
2023-09-27T02:08:23.538Z,995.42
2023-09-27T02:09:25.237Z,995.4
2023-09-27T02:10:26.987Z,995.47
2023-09-27T02:11:28.892Z,995.47
2023-09-27T02:12:30.474Z,995.52
2023-09-27T02:13:32.179Z,995.54
2023-09-27T02:14:34.095Z,995.5
2023-09-27T02:15:35.626Z,995.58
2023-09-27T02:16:37.373Z,995.53
2023-09-27T02:17:39.138Z,995.56
2023-09-27T02:18:40.841Z,995.54
2023-09-27T02:19:42.562Z,995.57
2023-09-27T02:20:44.342Z,995.58
2023-09-27T02:21:46.054Z,995.62
2023-09-27T02:22:47.792Z,995.67
2023-09-27T02:23:49.537Z,995.72
2023-09-27T02:24:51.274Z,995.72
2023-09-27T02:25:53.009Z,995.77
2023-09-27T02:26:54.703Z,995.8
2023-09-27T02:27:56.449Z,995.78
2023-09-27T02:28:58.197Z,995.83
2023-09-27T02:30:00.143Z,995.82
2023-09-27T02:31:01.749Z,995.85
2023-09-27T02:32:03.446Z,995.85
2023-09-27T02:33:05.157Z,995.79
2023-09-27T02:34:06.909Z,995.74
2023-09-27T02:35:08.584Z,995.83
2023-09-27T02:36:10.332Z,995.76
2023-09-27T02:37:12.063Z,995.76
2023-09-27T02:38:13.880Z,995.77
2023-09-27T02:39:15.496Z,995.82
2023-09-27T02:40:17.285Z,995.87
2023-09-27T02:41:19.036Z,995.92
2023-09-27T02:42:20.722Z,995.95
2023-09-27T02:43:22.436Z,995.92
2023-09-27T02:44:24.214Z,996
2023-09-27T02:45:25.900Z,996.01
2023-09-27T02:46:27.597Z,995.98
2023-09-27T02:47:29.563Z,995.99
2023-09-27T02:48:31.119Z,996.01
2023-09-27T02:49:32.850Z,996.02
2023-09-27T02:50:34.618Z,995.98
2023-09-27T02:51:36.330Z,996.02
2023-09-27T02:52:38.113Z,995.84
2023-09-27T02:53:39.771Z,995.98
2023-09-27T02:54:41.542Z,995.88
2023-09-27T02:55:43.260Z,995.91
2023-09-27T02:56:44.987Z,995.95
2023-09-27T02:57:46.716Z,995.94
2023-09-27T02:58:48.458Z,995.96
2023-09-27T02:59:50.191Z,995.96
2023-09-27T03:00:51.990Z,995.98
2023-09-27T03:01:53.751Z,995.95
2023-09-27T03:02:55.395Z,995.99
2023-09-27T03:03:57.173Z,996
2023-09-27T03:04:58.878Z,995.97
2023-09-27T03:06:00.585Z,996.03
2023-09-27T03:07:02.341Z,995.99
2023-09-27T03:08:08.539Z,996.09
2023-09-27T03:09:10.973Z,996.11
2023-09-27T03:10:12.993Z,996.12
2023-09-27T03:11:14.452Z,996.17
2023-09-27T03:12:16.122Z,996.21
2023-09-27T03:13:17.848Z,996.29
2023-09-27T03:14:19.610Z,996.29
2023-09-27T03:15:21.323Z,996.28
2023-09-27T03:16:23.183Z,996.3
2023-09-27T03:17:24.887Z,996.27
2023-09-27T03:18:26.556Z,996.27
2023-09-27T03:19:28.263Z,996.27
2023-09-27T03:20:30.022Z,996.27
2023-09-27T03:21:31.705Z,996.3
2023-09-27T03:22:33.466Z,996.33
2023-09-27T03:23:35.218Z,996.38
2023-09-27T03:24:37.975Z,996.43
2023-09-27T03:25:38.671Z,996.44
2023-09-27T03:26:40.384Z,996.5
2023-09-27T03:27:42.129Z,996.5
2023-09-27T03:28:44.255Z,996.47
2023-09-27T03:29:45.596Z,996.46
2023-09-27T03:30:47.346Z,996.39
2023-09-27T03:31:49.062Z,996.34
2023-09-27T03:32:50.845Z,996.31
2023-09-27T03:33:52.528Z,996.28
2023-09-27T03:34:54.344Z,996.16
2023-09-27T03:35:55.997Z,996.13
2023-09-27T03:36:57.710Z,996.1
2023-09-27T03:37:59.477Z,996.05
2023-09-27T03:39:01.188Z,996.07
2023-09-27T03:40:02.953Z,996.02
2023-09-27T03:41:04.682Z,996
2023-09-27T03:42:06.383Z,995.94
2023-09-27T03:43:08.160Z,995.87
2023-09-27T03:44:09.950Z,995.79
2023-09-27T03:45:11.609Z,995.77
2023-09-27T03:46:13.331Z,995.75
2023-09-27T03:47:15.132Z,995.7
2023-09-27T03:48:16.931Z,995.7
2023-09-27T03:49:18.553Z,995.73
2023-09-27T03:50:20.333Z,995.7
2023-09-27T03:51:22.173Z,995.72
2023-09-27T03:52:23.730Z,995.73
2023-09-27T03:53:25.686Z,995.74
2023-09-27T03:54:27.198Z,995.73
2023-09-27T03:55:28.917Z,995.74
2023-09-27T03:56:30.696Z,995.79
2023-09-27T03:57:32.400Z,995.79
2023-09-27T03:58:34.180Z,995.85
2023-09-27T03:59:35.894Z,995.84
2023-09-27T04:00:37.605Z,995.85
2023-09-27T04:01:39.358Z,995.89
2023-09-27T04:02:41.156Z,995.92
2023-09-27T04:03:42.922Z,995.89
2023-09-27T04:04:44.515Z,995.91
2023-09-27T04:05:46.427Z,995.94
2023-09-27T04:06:48.015Z,995.95
2023-09-27T04:07:49.727Z,995.92
2023-09-27T04:08:51.722Z,995.94
2023-09-27T04:09:53.189Z,995.92
2023-09-27T04:10:55.005Z,995.91
2023-09-27T04:11:56.652Z,995.9
2023-09-27T04:12:58.403Z,995.87
2023-09-27T04:14:00.156Z,995.86
2023-09-27T04:15:01.910Z,995.86
2023-09-27T04:16:03.777Z,995.85
2023-09-27T04:17:05.376Z,995.89
2023-09-27T04:18:07.111Z,995.87
2023-09-27T04:19:08.790Z,995.88
2023-09-27T04:20:10.599Z,995.91
2023-09-27T04:21:12.288Z,995.88
2023-09-27T04:22:14.057Z,995.89
2023-09-27T04:23:14.712Z,995.9
2023-09-27T04:24:17.330Z,995.99
2023-09-27T04:25:19.067Z,996.02
2023-09-27T04:26:20.842Z,996.04
2023-09-27T04:27:22.546Z,996.04
2023-09-27T04:28:24.250Z,996.07
2023-09-27T04:29:26.001Z,996.06
2023-09-27T04:30:27.724Z,996.02
2023-09-27T04:31:29.491Z,996.02
2023-09-27T04:32:31.376Z,996.02
2023-09-27T04:33:32.918Z,996.02
2023-09-27T04:34:34.704Z,996.04
2023-09-27T04:35:36.450Z,996
2023-09-27T04:36:38.187Z,996.01
2023-09-27T04:37:39.904Z,996
2023-09-27T04:38:41.621Z,996.05
2023-09-27T04:39:43.323Z,996.12
2023-09-27T04:40:45.095Z,996.06
2023-09-27T04:41:46.804Z,996.09
2023-09-27T04:42:48.520Z,996.06
2023-09-27T04:43:50.262Z,995.93
2023-09-27T04:44:51.991Z,996.01
2023-09-27T04:45:53.815Z,995.94
2023-09-27T04:46:55.457Z,995.99
2023-09-27T04:47:57.188Z,996
2023-09-27T04:48:58.906Z,995.97
2023-09-27T04:50:00.683Z,996.02
2023-09-27T04:51:02.394Z,995.98
2023-09-27T04:52:04.118Z,995.99
2023-09-27T04:53:07.461Z,996.01
2023-09-27T04:56:02.842Z,995.99
2023-09-27T04:57:06.401Z,995.96
2023-09-27T04:58:39.950Z,995.97
2023-09-27T05:01:02.137Z,996
2023-09-27T05:02:03.875Z,996.04
2023-09-27T05:03:05.678Z,996.01
2023-09-27T05:04:07.457Z,996.01
2023-09-27T05:05:09.255Z,996.02
2023-09-27T05:06:10.822Z,996
2023-09-27T05:07:12.613Z,995.99
2023-09-27T05:08:36.246Z,996.04
2023-09-27T05:11:02.514Z,996.08
2023-09-27T05:12:04.832Z,996.08
2023-09-27T05:13:07.456Z,996.15
2023-09-27T05:14:09.221Z,996.15
2023-09-27T05:15:11.084Z,996.22
2023-09-27T05:16:16.971Z,996.22
2023-09-27T05:17:19.510Z,996.24
2023-09-27T05:18:21.297Z,996.26
2023-09-27T05:19:22.963Z,996.28
2023-09-27T05:20:24.848Z,996.26
2023-09-27T05:21:26.444Z,996.26
2023-09-27T05:22:28.181Z,996.25
2023-09-27T05:23:30.069Z,996.26
2023-09-27T05:24:31.629Z,996.28
2023-09-27T05:25:33.378Z,996.32
2023-09-27T05:26:35.288Z,996.28
2023-09-27T05:27:36.836Z,996.32
2023-09-27T05:28:38.589Z,996.26
2023-09-27T05:29:40.282Z,996.33
2023-09-27T05:30:42.021Z,996.38
2023-09-27T05:31:43.774Z,996.31
2023-09-27T05:32:45.781Z,996.29
2023-09-27T05:33:47.391Z,996.31
2023-09-27T05:34:49.010Z,996.31
2023-09-27T05:35:50.710Z,996.29
2023-09-27T05:36:52.426Z,996.31
2023-09-27T05:37:54.207Z,996.3
2023-09-27T05:38:55.933Z,996.3
2023-09-27T05:39:57.627Z,996.25
2023-09-27T05:40:59.432Z,996.23
2023-09-27T05:42:01.107Z,996.22
2023-09-27T05:43:02.865Z,996.17
2023-09-27T05:44:04.566Z,996.17
2023-09-27T05:45:06.294Z,996.15
2023-09-27T05:46:08.031Z,996.12
2023-09-27T05:47:09.866Z,996.14
2023-09-27T05:48:11.620Z,996.14
2023-09-27T05:49:13.284Z,996.1
2023-09-27T05:50:15.248Z,996.11
2023-09-27T05:51:16.700Z,996.11
2023-09-27T05:52:18.415Z,996.15
2023-09-27T05:53:20.243Z,996.21
2023-09-27T05:54:21.926Z,996.19
2023-09-27T05:55:23.619Z,996.19
2023-09-27T05:56:25.480Z,996.18
2023-09-27T05:57:27.066Z,996.21
2023-09-27T05:58:28.839Z,996.22
2023-09-27T05:59:30.580Z,996.26
2023-09-27T06:00:32.303Z,996.22
2023-09-27T06:01:34.026Z,996.22
2023-09-27T06:02:35.866Z,996.22
2023-09-27T06:03:37.656Z,996.21
2023-09-27T06:04:39.235Z,996.21
2023-09-27T06:05:41.194Z,996.18
2023-09-27T06:06:42.686Z,996.11
2023-09-27T06:07:44.539Z,996.09
2023-09-27T06:08:46.177Z,996.09
2023-09-27T06:09:47.898Z,996.07
2023-09-27T06:10:49.616Z,996.05
2023-09-27T06:11:51.367Z,996.06
2023-09-27T06:12:53.129Z,996.09
2023-09-27T06:13:54.815Z,996.1
2023-09-27T06:14:56.557Z,996.12
2023-09-27T06:15:58.339Z,996.14
2023-09-27T06:17:00.119Z,996.2
2023-09-27T06:18:01.886Z,996.14
2023-09-27T06:19:03.515Z,996.11
2023-09-27T06:20:05.281Z,996.1
2023-09-27T06:21:06.941Z,996.13
2023-09-27T06:22:08.766Z,996.13
2023-09-27T06:23:10.416Z,996.11
2023-09-27T06:24:12.152Z,996.12
2023-09-27T06:25:13.870Z,996.11
2023-09-27T06:26:15.624Z,996.13
2023-09-27T06:27:17.358Z,996.15
2023-09-27T06:28:19.108Z,996.15
2023-09-27T06:29:23.002Z,996.1
2023-09-27T06:30:22.636Z,996.11
2023-09-27T06:31:24.427Z,996.12
2023-09-27T06:32:26.222Z,996.08
2023-09-27T06:33:27.766Z,996.12
2023-09-27T06:34:29.495Z,996.05
2023-09-27T06:35:31.377Z,996.07
2023-09-27T06:36:33.001Z,996.05
2023-09-27T06:37:34.675Z,996.01
2023-09-27T06:38:36.428Z,995.97
2023-09-27T06:39:38.149Z,995.93
2023-09-27T06:40:39.880Z,995.85
2023-09-27T06:41:41.728Z,995.87
2023-09-27T06:42:43.426Z,995.88
2023-09-27T06:43:45.198Z,995.88
2023-09-27T06:44:46.855Z,995.87
2023-09-27T06:45:48.554Z,995.87
2023-09-27T06:46:50.291Z,995.88
2023-09-27T06:47:52.185Z,995.89
2023-09-27T06:48:53.974Z,995.88
2023-09-27T06:49:55.503Z,995.93
2023-09-27T06:50:57.241Z,995.93
2023-09-27T06:51:58.984Z,996
2023-09-27T06:53:19.879Z,995.96
2023-09-27T06:54:02.500Z,996
2023-09-27T06:55:04.172Z,996
2023-09-27T06:56:05.932Z,995.98
2023-09-27T06:57:07.637Z,995.94
2023-09-27T06:58:09.362Z,996.01
2023-09-27T06:59:11.161Z,996.01
2023-09-27T07:00:12.858Z,995.94
2023-09-27T07:01:14.669Z,995.95
2023-09-27T07:02:16.353Z,995.95
2023-09-27T07:03:18.095Z,995.95
2023-09-27T07:04:19.804Z,995.98
2023-09-27T07:05:21.555Z,996
2023-09-27T07:06:23.234Z,996.02
2023-09-27T07:07:25.063Z,996.04
2023-09-27T07:08:26.741Z,996.09
2023-09-27T07:09:28.429Z,996.16
2023-09-27T07:10:30.177Z,996.17
2023-09-27T07:11:32.030Z,996.2
2023-09-27T07:12:33.645Z,996.22
2023-09-27T07:13:35.376Z,996.23
2023-09-27T07:14:37.158Z,996.25
2023-09-27T07:15:38.836Z,996.23
2023-09-27T07:16:54.659Z,996.23
2023-09-27T07:17:42.495Z,996.22
2023-09-27T07:18:44.179Z,996.21
2023-09-27T07:19:45.794Z,996.21
2023-09-27T07:20:47.536Z,996.25
2023-09-27T07:21:49.249Z,996.17
2023-09-27T07:22:50.986Z,996.21
2023-09-27T07:23:52.719Z,996.21
2023-09-27T07:24:54.463Z,996.19
2023-09-27T07:25:56.219Z,996.17
2023-09-27T07:26:57.927Z,996.21
2023-09-27T07:27:59.640Z,996.2
2023-09-27T07:29:01.443Z,996.23
2023-09-27T07:30:03.139Z,996.26
2023-09-27T07:31:04.920Z,996.26
2023-09-27T07:32:06.663Z,996.26
2023-09-27T07:33:08.340Z,996.26
2023-09-27T07:34:10.053Z,996.28
2023-09-27T07:35:11.841Z,996.28
2023-09-27T07:36:13.524Z,996.27
2023-09-27T07:37:15.254Z,996.23
2023-09-27T07:38:17.012Z,996.25
2023-09-27T07:39:18.725Z,996.26
2023-09-27T07:40:20.468Z,996.21
2023-09-27T07:41:22.263Z,996.23
2023-09-27T07:42:23.935Z,996.21
2023-09-27T07:43:25.680Z,996.29
2023-09-27T07:44:27.543Z,996.32
2023-09-27T07:45:29.131Z,996.33
2023-09-27T07:46:31.012Z,996.3
2023-09-27T07:47:32.708Z,996.35
2023-09-27T07:48:34.368Z,996.29
2023-09-27T07:49:36.105Z,996.25
2023-09-27T07:50:37.843Z,996.24
2023-09-27T07:51:39.545Z,996.2
2023-09-27T07:52:41.321Z,996.17
2023-09-27T07:53:43.121Z,996.17
2023-09-27T07:54:44.787Z,996.21
2023-09-27T07:55:46.475Z,996.22
2023-09-27T07:56:48.226Z,996.22
2023-09-27T07:57:49.929Z,996.29
2023-09-27T07:58:51.924Z,996.25
2023-09-27T07:59:53.410Z,996.31
2023-09-27T08:00:55.255Z,996.3
2023-09-27T08:01:56.863Z,996.29
2023-09-27T08:02:58.727Z,996.28
2023-09-27T08:04:00.508Z,996.25
2023-09-27T08:05:02.179Z,996.23
2023-09-27T08:06:03.810Z,996.26
2023-09-27T08:07:05.563Z,996.24
2023-09-27T08:08:07.313Z,996.27
2023-09-27T08:09:14.728Z,996.33
2023-09-27T08:10:21.178Z,996.33
2023-09-27T08:11:12.536Z,996.32
2023-09-27T08:12:14.211Z,996.37
2023-09-27T08:13:15.948Z,996.38
2023-09-27T08:14:17.713Z,996.39
2023-09-27T08:15:19.719Z,996.39
2023-09-27T08:16:21.155Z,996.41
2023-09-27T08:17:22.979Z,996.43
2023-09-27T08:18:24.851Z,996.42
2023-09-27T08:19:26.325Z,996.42
2023-09-27T08:20:28.393Z,996.39
2023-09-27T08:21:29.804Z,996.4
2023-09-27T08:22:31.518Z,996.37
2023-09-27T08:23:33.398Z,996.43
2023-09-27T08:24:35.037Z,996.44
2023-09-27T08:25:36.755Z,996.42
2023-09-27T08:26:38.552Z,996.36
2023-09-27T08:27:40.200Z,996.31
2023-09-27T08:28:41.968Z,996.3
2023-09-27T08:29:43.806Z,996.24
2023-09-27T08:30:45.536Z,996.25
2023-09-27T08:31:47.133Z,996.23
2023-09-27T08:32:49.029Z,996.23
2023-09-27T08:33:50.635Z,996.23
2023-09-27T08:34:52.335Z,996.18
2023-09-27T08:35:54.063Z,996.15
2023-09-27T08:36:55.808Z,996.15
2023-09-27T08:37:57.543Z,996.11
2023-09-27T08:38:59.268Z,996.12
2023-09-27T08:40:00.991Z,996.09
2023-09-27T08:41:02.725Z,996.09
2023-09-27T08:42:04.564Z,996.08
2023-09-27T08:43:06.247Z,996.06
2023-09-27T08:44:07.957Z,996.12
2023-09-27T08:45:09.637Z,996.12
2023-09-27T08:46:11.434Z,996.1
2023-09-27T08:47:13.272Z,996.17
2023-09-27T08:48:14.929Z,996.16
2023-09-27T08:49:16.597Z,996.14
2023-09-27T08:50:18.370Z,996.15
2023-09-27T08:51:20.065Z,996.09
2023-09-27T08:52:21.800Z,996.12
2023-09-27T08:53:23.601Z,996.1
2023-09-27T08:54:25.262Z,996.12
2023-09-27T08:55:27.003Z,996.09
2023-09-27T08:56:28.783Z,996.06
2023-09-27T08:57:30.461Z,996.09
2023-09-27T08:58:32.210Z,996.04
2023-09-27T08:59:34.058Z,996.04
2023-09-27T09:00:35.707Z,996.02
2023-09-27T09:01:37.423Z,996.04
2023-09-27T09:02:39.220Z,995.99
2023-09-27T09:03:41.163Z,996.03
2023-09-27T09:04:42.657Z,996.03
2023-09-27T09:05:44.403Z,996.03
2023-09-27T09:06:46.159Z,996.05
2023-09-27T09:07:47.800Z,996.01
2023-09-27T09:08:49.557Z,995.98
2023-09-27T09:09:51.276Z,995.97
2023-09-27T09:10:52.985Z,995.88
2023-09-27T09:11:54.735Z,995.97
2023-09-27T09:12:56.459Z,995.93
2023-09-27T09:13:58.191Z,995.99
2023-09-27T09:14:59.917Z,995.94
2023-09-27T09:16:01.736Z,995.93
2023-09-27T09:17:03.404Z,995.92
2023-09-27T09:18:05.204Z,995.94
2023-09-27T09:19:06.868Z,995.97
2023-09-27T09:20:08.634Z,995.93
2023-09-27T09:21:10.352Z,995.94
2023-09-27T09:22:12.057Z,995.93
2023-09-27T09:23:16.317Z,995.88
2023-09-27T09:24:15.529Z,995.87
2023-09-27T09:25:17.288Z,995.87
2023-09-27T09:26:20.973Z,995.9
2023-09-27T09:27:20.757Z,995.86
2023-09-27T09:28:22.456Z,995.85
2023-09-27T09:29:24.262Z,995.84
2023-09-27T09:30:25.954Z,995.84
2023-09-27T09:31:27.820Z,995.73
2023-09-27T09:32:29.986Z,995.71
2023-09-27T09:33:31.267Z,995.74
2023-09-27T09:34:32.881Z,995.71
2023-09-27T09:35:34.713Z,995.73
2023-09-27T09:36:36.375Z,995.75
2023-09-27T09:37:38.075Z,995.73
2023-09-27T09:38:39.848Z,995.73
2023-09-27T09:39:41.595Z,995.72
2023-09-27T09:40:43.262Z,995.77
2023-09-27T09:41:45.137Z,995.72
2023-09-27T09:42:46.737Z,995.73
2023-09-27T09:43:48.464Z,995.77
2023-09-27T09:44:50.203Z,995.77
2023-09-27T09:45:52.047Z,995.76
2023-09-27T09:46:53.678Z,995.78
2023-09-27T09:47:55.567Z,995.77
2023-09-27T09:48:57.123Z,995.81
2023-09-27T09:49:58.867Z,995.85
2023-09-27T09:51:00.610Z,995.81
2023-09-27T09:52:02.322Z,995.77
2023-09-27T09:53:04.081Z,995.8
2023-09-27T09:54:05.862Z,995.82
2023-09-27T09:56:29.165Z,995.79
2023-09-27T09:57:18.642Z,995.75
2023-09-27T09:58:12.792Z,995.72
2023-09-27T09:59:14.536Z,995.73
2023-09-27T10:00:33.970Z,995.72
2023-09-27T10:01:38.941Z,995.67
2023-09-27T10:02:41.179Z,995.75
2023-09-27T10:03:42.238Z,995.76
2023-09-27T10:04:43.717Z,995.72
2023-09-27T10:05:45.490Z,995.75
2023-09-27T10:06:49.791Z,995.76
2023-09-27T10:07:48.915Z,995.83
2023-09-27T10:08:50.717Z,995.84
2023-09-27T10:09:52.393Z,995.84
2023-09-27T10:10:54.116Z,995.87
2023-09-27T10:11:55.919Z,995.85
2023-09-27T10:12:57.566Z,995.82
2023-09-27T10:13:59.319Z,995.83
2023-09-27T10:15:01.067Z,995.86
2023-09-27T10:16:02.847Z,995.8
2023-09-27T10:17:04.893Z,995.8
2023-09-27T10:18:06.421Z,995.82
2023-09-27T10:19:07.959Z,995.81
2023-09-27T10:20:09.819Z,995.78
2023-09-27T10:21:11.488Z,995.75
2023-09-27T10:22:13.166Z,995.73
2023-09-27T10:23:14.992Z,995.76
2023-09-27T10:24:16.676Z,995.75
2023-09-27T10:25:18.407Z,995.65
2023-09-27T10:26:20.132Z,995.72
2023-09-27T10:27:21.855Z,995.68
2023-09-27T10:28:23.590Z,995.67
2023-09-27T10:29:25.354Z,995.68
2023-09-27T10:30:27.032Z,995.72
2023-09-27T10:31:28.837Z,995.69
2023-09-27T10:32:30.622Z,995.63
2023-09-27T10:33:32.300Z,995.62
2023-09-27T10:34:33.952Z,995.59
2023-09-27T10:35:35.804Z,995.62
2023-09-27T10:36:37.441Z,995.61
2023-09-27T10:37:39.196Z,995.61
2023-09-27T10:38:40.930Z,995.64
2023-09-27T10:39:42.654Z,995.63
2023-09-27T10:40:44.451Z,995.65
2023-09-27T10:41:46.182Z,995.6
2023-09-27T10:42:47.856Z,995.62
2023-09-27T10:43:49.580Z,995.57
2023-09-27T10:44:51.527Z,995.55
2023-09-27T10:45:53.766Z,995.56
2023-09-27T10:46:54.826Z,995.55
2023-09-27T10:47:56.697Z,995.52
2023-09-27T10:48:58.238Z,995.5
2023-09-27T10:49:59.980Z,995.46
2023-09-27T10:51:01.790Z,995.44
2023-09-27T10:52:06.802Z,995.43
2023-09-27T10:53:05.169Z,995.37
2023-09-27T10:54:06.936Z,995.4
2023-09-27T10:55:08.669Z,995.32
2023-09-27T10:56:10.419Z,995.31
2023-09-27T10:57:12.126Z,995.29
2023-09-27T10:58:13.860Z,995.22
2023-09-27T10:59:15.737Z,995.25
2023-09-27T11:00:17.443Z,995.27
2023-09-27T11:01:19.123Z,995.25
2023-09-27T11:02:20.860Z,995.21
2023-09-27T11:03:22.694Z,995.25
2023-09-27T11:04:24.313Z,995.24
2023-09-27T11:05:26.073Z,995.23
2023-09-27T11:06:27.860Z,995.21
2023-09-27T11:07:29.452Z,995.13
2023-09-27T11:08:31.412Z,995.2
2023-09-27T11:09:34.128Z,995.26
2023-09-27T11:10:34.788Z,995.19
2023-09-27T11:11:36.453Z,995.21
2023-09-27T11:12:38.140Z,995.18
2023-09-27T11:13:39.866Z,995.2
2023-09-27T11:14:41.675Z,995.18
2023-09-27T11:15:43.401Z,995.16
2023-09-27T11:16:45.177Z,995.11
2023-09-27T11:17:46.924Z,995.08
2023-09-27T11:18:48.680Z,995.11
2023-09-27T11:19:50.263Z,995.13
2023-09-27T11:20:52.056Z,995.15
2023-09-27T11:21:53.726Z,995.06
2023-09-27T11:22:55.498Z,995.08
2023-09-27T11:23:57.264Z,995.05
2023-09-27T11:24:58.937Z,995.01
2023-09-27T11:26:00.697Z,994.92
2023-09-27T11:27:02.387Z,994.93
2023-09-27T11:28:04.139Z,994.9
2023-09-27T11:29:05.876Z,994.89
2023-09-27T11:30:07.601Z,994.88
2023-09-27T11:31:09.369Z,994.83
2023-09-27T11:32:11.076Z,994.83
2023-09-27T11:33:12.828Z,994.86
2023-09-27T11:34:14.537Z,994.86
2023-09-27T11:35:16.285Z,994.83
2023-09-27T11:36:17.971Z,994.8
2023-09-27T11:37:19.710Z,994.76
2023-09-27T11:38:22.987Z,994.69
2023-09-27T11:39:23.246Z,994.68
2023-09-27T11:40:24.923Z,994.65
2023-09-27T11:41:26.674Z,994.64
2023-09-27T11:42:28.387Z,994.61
2023-09-27T11:43:30.116Z,994.58
2023-09-27T11:44:31.878Z,994.59
2023-09-27T11:45:33.626Z,994.57
2023-09-27T11:46:35.404Z,994.52
2023-09-27T11:47:37.230Z,994.51
2023-09-27T11:48:38.785Z,994.48
2023-09-27T11:49:40.529Z,994.49
2023-09-27T11:50:42.439Z,994.46
2023-09-27T11:51:44.176Z,994.44
2023-09-27T11:52:45.715Z,994.47
2023-09-27T11:53:47.510Z,994.45
2023-09-27T11:54:49.348Z,994.47
2023-09-27T11:55:51.081Z,994.46
2023-09-27T11:56:53.098Z,994.41
2023-09-27T11:57:54.529Z,994.35
2023-09-27T11:58:56.267Z,994.38
2023-09-27T11:59:57.987Z,994.38
2023-09-27T12:00:59.887Z,994.34
2023-09-27T12:02:09.159Z,994.35
2023-09-27T12:03:03.322Z,994.33
2023-09-27T12:04:06.772Z,994.32
2023-09-27T12:05:06.823Z,994.29
2023-09-27T12:06:08.598Z,994.3
2023-09-27T12:07:10.457Z,994.26
2023-09-27T12:08:11.905Z,994.25
2023-09-27T12:09:13.628Z,994.21
2023-09-27T12:10:15.413Z,994.2
2023-09-27T12:11:17.135Z,994.21
2023-09-27T12:12:21.435Z,994.19
2023-09-27T12:13:25.685Z,994.21
2023-09-27T12:14:27.441Z,994.19
2023-09-27T12:15:29.164Z,994.13
2023-09-27T12:16:31.010Z,994.09
2023-09-27T12:17:32.689Z,994.09
2023-09-27T12:18:34.405Z,994.04
2023-09-27T12:19:36.072Z,994.06
2023-09-27T12:20:41.799Z,994.05
2023-09-27T12:21:39.590Z,994.03
2023-09-27T12:22:54.691Z,994.04
2023-09-27T12:23:57.210Z,994
2023-09-27T12:24:59.769Z,994.04
2023-09-27T12:26:00.297Z,993.97
2023-09-27T12:27:02.024Z,993.97
2023-09-27T12:28:03.761Z,993.96
2023-09-27T12:29:05.580Z,993.97
2023-09-27T12:30:07.260Z,993.96
2023-09-27T12:31:09.095Z,993.94
2023-09-27T12:32:10.754Z,993.95
2023-09-27T12:33:12.548Z,993.92
2023-09-27T12:34:14.150Z,993.89
2023-09-27T12:35:15.904Z,993.87
2023-09-27T12:36:17.611Z,993.88
2023-09-27T12:37:20.804Z,993.82
2023-09-27T12:38:21.138Z,993.84
2023-09-27T12:39:22.818Z,993.76
2023-09-27T12:40:24.532Z,993.78
2023-09-27T12:41:26.356Z,993.75
2023-09-27T12:42:28.253Z,993.77
2023-09-27T12:43:29.732Z,993.74
2023-09-27T12:44:31.647Z,993.78
2023-09-27T12:45:33.219Z,993.73
2023-09-27T12:46:35.023Z,993.69
2023-09-27T12:47:36.991Z,993.72
2023-09-27T12:48:38.501Z,993.7
2023-09-27T12:49:40.145Z,993.71
2023-09-27T12:50:41.960Z,993.69
2023-09-27T12:51:49.412Z,993.66
2023-09-27T12:52:45.391Z,993.65
2023-09-27T12:53:47.157Z,993.61
2023-09-27T12:54:48.834Z,993.56
2023-09-27T12:55:50.572Z,993.55
2023-09-27T12:56:52.361Z,993.54
2023-09-27T12:57:54.101Z,993.54
2023-09-27T12:58:55.775Z,993.53
2023-09-27T12:59:57.529Z,993.46
2023-09-27T13:01:29.509Z,993.48
2023-09-27T13:02:33.332Z,993.45
2023-09-27T13:05:12.380Z,993.42
2023-09-27T13:06:12.919Z,993.38
2023-09-27T13:07:15.558Z,993.41
2023-09-27T13:08:16.311Z,993.38
2023-09-27T13:09:17.842Z,993.39
2023-09-27T13:10:19.560Z,993.33
2023-09-27T13:11:21.334Z,993.33